Ringsted, Iowa
Current Conditions -  °F | °C
As of 9:52 AM on Monday 26 Jan 2015 (Local Time) from KEST Reporting Station
Clear Clear  
Wind Chill: 26°   Ceiling: Unl
Heat Index: 36°   Visibility: 10mi
Dew Point: 32°   Wind: 16mph
Humidity: 86%   Direction: 310°NW
Pressure: 29.77"   Gusts: NA
Location:  43.29°N, 94.51°W
Report Text: KEST 261552Z AUTO 31014KT 10SM CLR 02/00 A2977 RMK AO2 SLP094 T00220000
Loading
Personal Weather Stations






























Interactive Weather Map New forecast layout! Learn more

10-Day Weather Forecast

Advertisements
Track Severe Weather on mobile